sensor_id;sensor_type;location;lat;lon;timestamp;P1;durP1;ratioP1;P2;durP2;ratioP2
75885;SDS011;64561;44.018;10.144;2023-02-28T00:01:06;6.60;;;4.38;;
75885;SDS011;64561;44.018;10.144;2023-02-28T00:03:33;7.00;;;4.70;;
75885;SDS011;64561;44.018;10.144;2023-02-28T00:06:02;6.13;;;4.03;;
75885;SDS011;64561;44.018;10.144;2023-02-28T00:08:31;9.18;;;4.82;;
75885;SDS011;64561;44.018;10.144;2023-02-28T00:11:02;12.00;;;6.90;;
75885;SDS011;64561;44.018;10.144;2023-02-28T00:13:30;6.45;;;5.18;;
75885;SDS011;64561;44.018;10.144;2023-02-28T00:15:58;7.35;;;5.43;;
75885;SDS011;64561;44.018;10.144;2023-02-28T00:18:26;8.50;;;5.50;;
75885;SDS011;64561;44.018;10.144;2023-02-28T00:20:57;7.25;;;4.70;;
75885;SDS011;64561;44.018;10.144;2023-02-28T00:23:24;7.78;;;5.35;;
75885;SDS011;64561;44.018;10.144;2023-02-28T00:25:52;6.72;;;4.30;;
75885;SDS011;64561;44.018;10.144;2023-02-28T00:28:19;7.28;;;4.10;;
75885;SDS011;64561;44.018;10.144;2023-02-28T00:30:46;6.63;;;3.22;;
75885;SDS011;64561;44.018;10.144;2023-02-28T00:33:16;4.10;;;2.90;;
75885;SDS011;64561;44.018;10.144;2023-02-28T00:35:43;5.85;;;3.67;;
75885;SDS011;64561;44.018;10.144;2023-02-28T00:38:13;3.78;;;2.53;;
75885;SDS011;64561;44.018;10.144;2023-02-28T00:40:41;9.13;;;5.95;;
75885;SDS011;64561;44.018;10.144;2023-02-28T00:43:10;10.85;;;7.22;;
75885;SDS011;64561;44.018;10.144;2023-02-28T00:45:37;8.57;;;5.75;;
75885;SDS011;64561;44.018;10.144;2023-02-28T00:48:03;8.18;;;5.03;;
75885;SDS011;64561;44.018;10.144;2023-02-28T00:50:31;8.00;;;4.43;;
75885;SDS011;64561;44.018;10.144;2023-02-28T00:52:58;7.80;;;4.70;;
75885;SDS011;64561;44.018;10.144;2023-02-28T00:55:25;6.20;;;4.15;;
75885;SDS011;64561;44.018;10.144;2023-02-28T00:57:52;5.63;;;3.80;;
75885;SDS011;64561;44.018;10.144;2023-02-28T01:00:19;6.18;;;3.58;;
75885;SDS011;64561;44.018;10.144;2023-02-28T01:02:48;6.25;;;3.90;;
75885;SDS011;64561;44.018;10.144;2023-02-28T01:05:15;6.03;;;3.78;;
75885;SDS011;64561;44.018;10.144;2023-02-28T01:07:44;6.03;;;3.63;;
75885;SDS011;64561;44.018;10.144;2023-02-28T01:10:10;6.18;;;3.47;;
75885;SDS011;64561;44.018;10.144;2023-02-28T01:12:38;5.97;;;3.50;;
75885;SDS011;64561;44.018;10.144;2023-02-28T01:15:05;5.90;;;3.67;;
75885;SDS011;64561;44.018;10.144;2023-02-28T01:17:32;6.00;;;3.75;;
75885;SDS011;64561;44.018;10.144;2023-02-28T01:19:59;4.80;;;3.45;;
75885;SDS011;64561;44.018;10.144;2023-02-28T01:22:26;4.90;;;2.70;;
75885;SDS011;64561;44.018;10.144;2023-02-28T01:24:53;5.80;;;3.30;;
75885;SDS011;64561;44.018;10.144;2023-02-28T01:27:20;5.28;;;3.40;;
75885;SDS011;64561;44.018;10.144;2023-02-28T01:29:47;4.78;;;3.17;;
75885;SDS011;64561;44.018;10.144;2023-02-28T01:32:14;5.07;;;3.47;;
75885;SDS011;64561;44.018;10.144;2023-02-28T01:34:41;5.32;;;3.33;;
75885;SDS011;64561;44.018;10.144;2023-02-28T01:37:08;4.43;;;3.53;;
75885;SDS011;64561;44.018;10.144;2023-02-28T01:39:35;6.43;;;3.38;;
75885;SDS011;64561;44.018;10.144;2023-02-28T01:42:02;6.47;;;3.65;;
75885;SDS011;64561;44.018;10.144;2023-02-28T01:47:38;5.90;;;3.50;;
75885;SDS011;64561;44.018;10.144;2023-02-28T01:50:09;5.22;;;3.38;;
75885;SDS011;64561;44.018;10.144;2023-02-28T01:52:41;4.15;;;3.10;;
75885;SDS011;64561;44.018;10.144;2023-02-28T01:55:10;5.78;;;4.03;;
75885;SDS011;64561;44.018;10.144;2023-02-28T01:57:41;6.20;;;3.67;;
75885;SDS011;64561;44.018;10.144;2023-02-28T02:00:15;6.35;;;3.55;;
75885;SDS011;64561;44.018;10.144;2023-02-28T02:02:48;5.35;;;3.45;;
75885;SDS011;64561;44.018;10.144;2023-02-28T02:05:19;5.63;;;3.63;;
75885;SDS011;64561;44.018;10.144;2023-02-28T02:07:49;6.18;;;4.43;;
75885;SDS011;64561;44.018;10.144;2023-02-28T02:18:51;6.93;;;4.80;;
75885;SDS011;64561;44.018;10.144;2023-02-28T02:21:36;6.45;;;4.38;;
75885;SDS011;64561;44.018;10.144;2023-02-28T02:43:49;5.40;;;3.10;;
75885;SDS011;64561;44.018;10.144;2023-02-28T02:46:22;5.18;;;3.20;;
75885;SDS011;64561;44.018;10.144;2023-02-28T02:48:57;5.40;;;3.40;;
75885;SDS011;64561;44.018;10.144;2023-02-28T02:51:27;4.70;;;3.13;;
75885;SDS011;64561;44.018;10.144;2023-02-28T02:54:02;8.02;;;3.67;;
75885;SDS011;64561;44.018;10.144;2023-02-28T02:56:34;5.25;;;3.83;;
75885;SDS011;64561;44.018;10.144;2023-02-28T03:01:34;6.20;;;3.80;;
75885;SDS011;64561;44.018;10.144;2023-02-28T03:04:04;5.35;;;3.38;;
75885;SDS011;64561;44.018;10.144;2023-02-28T03:06:34;5.75;;;3.22;;
75885;SDS011;64561;44.018;10.144;2023-02-28T03:09:01;6.13;;;3.80;;
75885;SDS011;64561;44.018;10.144;2023-02-28T03:11:29;8.35;;;5.90;;
75885;SDS011;64561;44.018;10.144;2023-02-28T03:20:17;5.10;;;3.10;;
75885;SDS011;64561;44.018;10.144;2023-02-28T03:25:52;6.82;;;3.70;;
75885;SDS011;64561;44.018;10.144;2023-02-28T03:31:19;7.57;;;3.53;;
75885;SDS011;64561;44.018;10.144;2023-02-28T03:36:47;6.13;;;3.90;;
75885;SDS011;64561;44.018;10.144;2023-02-28T03:39:27;4.78;;;3.30;;
75885;SDS011;64561;44.018;10.144;2023-02-28T03:42:05;6.50;;;3.47;;
75885;SDS011;64561;44.018;10.144;2023-02-28T03:44:46;6.68;;;4.00;;
75885;SDS011;64561;44.018;10.144;2023-02-28T03:47:18;6.78;;;3.63;;
75885;SDS011;64561;44.018;10.144;2023-02-28T03:49:57;6.13;;;4.15;;
75885;SDS011;64561;44.018;10.144;2023-02-28T03:52:31;6.70;;;4.05;;
75885;SDS011;64561;44.018;10.144;2023-02-28T03:55:02;4.95;;;3.30;;
75885;SDS011;64561;44.018;10.144;2023-02-28T03:57:35;5.97;;;3.42;;
75885;SDS011;64561;44.018;10.144;2023-02-28T04:02:41;4.68;;;3.45;;
75885;SDS011;64561;44.018;10.144;2023-02-28T04:05:08;5.22;;;3.38;;
75885;SDS011;64561;44.018;10.144;2023-02-28T04:07:37;4.65;;;3.40;;
75885;SDS011;64561;44.018;10.144;2023-02-28T04:10:04;5.60;;;4.22;;
75885;SDS011;64561;44.018;10.144;2023-02-28T04:12:31;5.57;;;3.67;;
75885;SDS011;64561;44.018;10.144;2023-02-28T04:14:58;6.70;;;4.10;;
75885;SDS011;64561;44.018;10.144;2023-02-28T04:17:25;5.28;;;4.10;;
75885;SDS011;64561;44.018;10.144;2023-02-28T04:19:52;5.63;;;3.60;;
75885;SDS011;64561;44.018;10.144;2023-02-28T04:22:20;6.18;;;4.07;;
75885;SDS011;64561;44.018;10.144;2023-02-28T04:24:47;5.28;;;3.75;;
75885;SDS011;64561;44.018;10.144;2023-02-28T04:27:13;7.50;;;4.90;;
75885;SDS011;64561;44.018;10.144;2023-02-28T04:29:42;8.13;;;5.47;;
75885;SDS011;64561;44.018;10.144;2023-02-28T04:32:10;6.38;;;4.68;;
75885;SDS011;64561;44.018;10.144;2023-02-28T04:34:38;8.30;;;5.50;;
75885;SDS011;64561;44.018;10.144;2023-02-28T04:37:05;8.77;;;6.07;;
75885;SDS011;64561;44.018;10.144;2023-02-28T04:39:39;7.25;;;5.45;;
75885;SDS011;64561;44.018;10.144;2023-02-28T04:42:07;8.15;;;5.47;;
75885;SDS011;64561;44.018;10.144;2023-02-28T04:44:34;7.90;;;4.68;;
75885;SDS011;64561;44.018;10.144;2023-02-28T04:47:01;7.43;;;3.67;;
75885;SDS011;64561;44.018;10.144;2023-02-28T04:49:27;6.10;;;4.15;;
75885;SDS011;64561;44.018;10.144;2023-02-28T04:51:54;7.35;;;4.28;;
75885;SDS011;64561;44.018;10.144;2023-02-28T04:54:22;8.40;;;4.15;;
75885;SDS011;64561;44.018;10.144;2023-02-28T04:56:48;5.75;;;3.85;;
75885;SDS011;64561;44.018;10.144;2023-02-28T04:59:16;6.72;;;4.18;;
75885;SDS011;64561;44.018;10.144;2023-02-28T05:01:47;6.95;;;4.18;;
75885;SDS011;64561;44.018;10.144;2023-02-28T05:04:15;6.78;;;3.92;;
75885;SDS011;64561;44.018;10.144;2023-02-28T05:06:42;7.28;;;4.15;;
75885;SDS011;64561;44.018;10.144;2023-02-28T05:09:09;6.28;;;3.67;;
75885;SDS011;64561;44.018;10.144;2023-02-28T05:11:39;7.80;;;4.30;;
75885;SDS011;64561;44.018;10.144;2023-02-28T05:14:08;6.22;;;3.65;;
75885;SDS011;64561;44.018;10.144;2023-02-28T05:16:38;6.45;;;3.50;;
75885;SDS011;64561;44.018;10.144;2023-02-28T05:19:05;5.63;;;3.15;;
75885;SDS011;64561;44.018;10.144;2023-02-28T05:21:39;8.65;;;3.70;;
75885;SDS011;64561;44.018;10.144;2023-02-28T05:24:11;5.60;;;3.25;;
75885;SDS011;64561;44.018;10.144;2023-02-28T05:26:39;6.60;;;3.38;;
75885;SDS011;64561;44.018;10.144;2023-02-28T05:29:07;4.05;;;3.10;;
75885;SDS011;64561;44.018;10.144;2023-02-28T05:31:35;6.25;;;3.17;;
75885;SDS011;64561;44.018;10.144;2023-02-28T05:34:03;6.88;;;3.65;;
75885;SDS011;64561;44.018;10.144;2023-02-28T05:36:32;7.35;;;3.42;;
75885;SDS011;64561;44.018;10.144;2023-02-28T05:39:02;4.82;;;3.40;;
75885;SDS011;64561;44.018;10.144;2023-02-28T05:41:29;7.18;;;3.10;;
75885;SDS011;64561;44.018;10.144;2023-02-28T05:43:57;6.70;;;3.92;;
75885;SDS011;64561;44.018;10.144;2023-02-28T05:46:24;5.50;;;3.33;;
75885;SDS011;64561;44.018;10.144;2023-02-28T05:48:51;8.50;;;3.72;;
75885;SDS011;64561;44.018;10.144;2023-02-28T05:51:18;4.88;;;2.85;;
75885;SDS011;64561;44.018;10.144;2023-02-28T05:53:45;4.88;;;2.45;;
75885;SDS011;64561;44.018;10.144;2023-02-28T05:56:12;6.25;;;4.18;;
75885;SDS011;64561;44.018;10.144;2023-02-28T05:58:38;9.52;;;5.05;;
75885;SDS011;64561;44.018;10.144;2023-02-28T06:03:58;8.90;;;5.80;;
75885;SDS011;64561;44.018;10.144;2023-02-28T06:06:26;10.18;;;5.57;;
75885;SDS011;64561;44.018;10.144;2023-02-28T06:08:53;8.25;;;4.88;;
75885;SDS011;64561;44.018;10.144;2023-02-28T06:11:20;6.50;;;4.32;;
75885;SDS011;64561;44.018;10.144;2023-02-28T06:13:47;7.28;;;3.78;;
75885;SDS011;64561;44.018;10.144;2023-02-28T06:16:14;7.22;;;4.68;;
75885;SDS011;64561;44.018;10.144;2023-02-28T06:18:40;7.65;;;4.43;;
75885;SDS011;64561;44.018;10.144;2023-02-28T06:21:08;7.03;;;3.80;;
75885;SDS011;64561;44.018;10.144;2023-02-28T06:23:35;6.10;;;4.35;;
75885;SDS011;64561;44.018;10.144;2023-02-28T06:26:02;7.30;;;4.20;;
75885;SDS011;64561;44.018;10.144;2023-02-28T06:28:29;7.22;;;3.97;;
75885;SDS011;64561;44.018;10.144;2023-02-28T06:30:56;6.45;;;4.03;;
75885;SDS011;64561;44.018;10.144;2023-02-28T06:33:23;9.43;;;3.83;;
75885;SDS011;64561;44.018;10.144;2023-02-28T06:35:50;7.47;;;4.65;;
75885;SDS011;64561;44.018;10.144;2023-02-28T06:38:18;7.28;;;4.47;;
75885;SDS011;64561;44.018;10.144;2023-02-28T06:40:52;7.20;;;4.32;;
75885;SDS011;64561;44.018;10.144;2023-02-28T06:43:21;9.10;;;4.65;;
75885;SDS011;64561;44.018;10.144;2023-02-28T06:45:48;11.25;;;6.18;;
75885;SDS011;64561;44.018;10.144;2023-02-28T06:48:15;15.52;;;7.88;;
75885;SDS011;64561;44.018;10.144;2023-02-28T06:50:43;14.15;;;6.72;;
75885;SDS011;64561;44.018;10.144;2023-02-28T06:53:09;9.25;;;5.80;;
75885;SDS011;64561;44.018;10.144;2023-02-28T06:55:37;12.13;;;6.30;;
75885;SDS011;64561;44.018;10.144;2023-02-28T06:58:05;10.25;;;6.75;;
75885;SDS011;64561;44.018;10.144;2023-02-28T07:00:41;10.75;;;7.40;;
75885;SDS011;64561;44.018;10.144;2023-02-28T07:03:10;15.13;;;6.97;;
75885;SDS011;64561;44.018;10.144;2023-02-28T07:05:38;10.48;;;7.57;;
75885;SDS011;64561;44.018;10.144;2023-02-28T07:08:05;11.95;;;6.97;;
75885;SDS011;64561;44.018;10.144;2023-02-28T07:10:32;11.73;;;6.90;;
75885;SDS011;64561;44.018;10.144;2023-02-28T07:13:00;10.40;;;7.15;;
75885;SDS011;64561;44.018;10.144;2023-02-28T07:15:26;9.70;;;6.65;;
75885;SDS011;64561;44.018;10.144;2023-02-28T07:17:53;7.70;;;5.50;;
75885;SDS011;64561;44.018;10.144;2023-02-28T07:20:20;9.75;;;6.75;;
75885;SDS011;64561;44.018;10.144;2023-02-28T07:22:47;10.68;;;7.50;;
75885;SDS011;64561;44.018;10.144;2023-02-28T07:25:22;10.10;;;6.68;;
75885;SDS011;64561;44.018;10.144;2023-02-28T07:27:54;9.75;;;7.22;;
75885;SDS011;64561;44.018;10.144;2023-02-28T07:30:22;14.93;;;8.35;;
75885;SDS011;64561;44.018;10.144;2023-02-28T07:32:49;9.90;;;7.30;;
75885;SDS011;64561;44.018;10.144;2023-02-28T07:35:16;17.50;;;10.57;;
75885;SDS011;64561;44.018;10.144;2023-02-28T07:37:42;14.15;;;10.63;;
75885;SDS011;64561;44.018;10.144;2023-02-28T07:40:10;14.90;;;10.32;;
75885;SDS011;64561;44.018;10.144;2023-02-28T07:42:38;17.98;;;10.07;;
75885;SDS011;64561;44.018;10.144;2023-02-28T07:45:06;14.63;;;7.70;;
75885;SDS011;64561;44.018;10.144;2023-02-28T07:47:34;8.68;;;5.82;;
75885;SDS011;64561;44.018;10.144;2023-02-28T07:50:01;9.15;;;6.07;;
75885;SDS011;64561;44.018;10.144;2023-02-28T07:52:27;9.27;;;5.95;;
75885;SDS011;64561;44.018;10.144;2023-02-28T07:54:54;8.32;;;5.68;;
75885;SDS011;64561;44.018;10.144;2023-02-28T07:57:21;8.75;;;5.35;;
75885;SDS011;64561;44.018;10.144;2023-02-28T07:59:47;9.48;;;5.78;;
75885;SDS011;64561;44.018;10.144;2023-02-28T08:02:15;8.93;;;5.30;;
75885;SDS011;64561;44.018;10.144;2023-02-28T08:04:43;8.85;;;5.32;;
75885;SDS011;64561;44.018;10.144;2023-02-28T08:07:12;8.35;;;4.78;;
75885;SDS011;64561;44.018;10.144;2023-02-28T08:09:39;10.10;;;5.45;;
75885;SDS011;64561;44.018;10.144;2023-02-28T08:12:07;7.65;;;4.90;;
75885;SDS011;64561;44.018;10.144;2023-02-28T08:14:34;10.32;;;4.82;;
75885;SDS011;64561;44.018;10.144;2023-02-28T08:17:12;10.70;;;6.03;;
75885;SDS011;64561;44.018;10.144;2023-02-28T08:19:38;8.27;;;5.55;;
75885;SDS011;64561;44.018;10.144;2023-02-28T08:22:05;8.95;;;5.53;;
75885;SDS011;64561;44.018;10.144;2023-02-28T08:24:32;6.72;;;4.72;;
75885;SDS011;64561;44.018;10.144;2023-02-28T08:26:59;9.02;;;5.03;;
75885;SDS011;64561;44.018;10.144;2023-02-28T08:29:26;9.50;;;5.18;;
75885;SDS011;64561;44.018;10.144;2023-02-28T08:31:53;8.13;;;4.93;;
75885;SDS011;64561;44.018;10.144;2023-02-28T08:34:20;9.10;;;5.55;;
75885;SDS011;64561;44.018;10.144;2023-02-28T08:36:47;9.05;;;5.70;;
75885;SDS011;64561;44.018;10.144;2023-02-28T08:39:14;8.45;;;4.85;;
75885;SDS011;64561;44.018;10.144;2023-02-28T08:41:41;9.02;;;5.88;;
75885;SDS011;64561;44.018;10.144;2023-02-28T08:44:08;7.95;;;5.32;;
75885;SDS011;64561;44.018;10.144;2023-02-28T08:46:35;7.38;;;4.82;;
75885;SDS011;64561;44.018;10.144;2023-02-28T08:49:02;9.80;;;5.07;;
75885;SDS011;64561;44.018;10.144;2023-02-28T08:51:29;8.10;;;4.78;;
75885;SDS011;64561;44.018;10.144;2023-02-28T08:54:00;8.07;;;4.90;;
75885;SDS011;64561;44.018;10.144;2023-02-28T08:56:28;7.93;;;5.65;;
75885;SDS011;64561;44.018;10.144;2023-02-28T08:58:56;8.95;;;4.85;;
75885;SDS011;64561;44.018;10.144;2023-02-28T09:01:27;9.02;;;4.95;;
75885;SDS011;64561;44.018;10.144;2023-02-28T09:03:56;8.32;;;5.25;;
75885;SDS011;64561;44.018;10.144;2023-02-28T09:06:25;7.35;;;4.50;;
75885;SDS011;64561;44.018;10.144;2023-02-28T09:08:55;7.18;;;4.55;;
75885;SDS011;64561;44.018;10.144;2023-02-28T09:13:51;8.73;;;4.28;;
75885;SDS011;64561;44.018;10.144;2023-02-28T09:16:19;7.93;;;5.35;;
75885;SDS011;64561;44.018;10.144;2023-02-28T09:18:46;10.27;;;4.60;;
75885;SDS011;64561;44.018;10.144;2023-02-28T09:21:14;6.53;;;4.43;;
75885;SDS011;64561;44.018;10.144;2023-02-28T09:23:44;9.73;;;4.63;;
75885;SDS011;64561;44.018;10.144;2023-02-28T09:26:15;7.88;;;4.03;;
75885;SDS011;64561;44.018;10.144;2023-02-28T09:28:46;9.65;;;4.07;;
75885;SDS011;64561;44.018;10.144;2023-02-28T09:31:14;6.35;;;3.90;;
75885;SDS011;64561;44.018;10.144;2023-02-28T09:33:49;6.03;;;3.85;;
75885;SDS011;64561;44.018;10.144;2023-02-28T09:36:18;7.05;;;3.75;;
75885;SDS011;64561;44.018;10.144;2023-02-28T09:38:46;8.13;;;4.53;;
75885;SDS011;64561;44.018;10.144;2023-02-28T09:41:37;6.45;;;4.38;;
75885;SDS011;64561;44.018;10.144;2023-02-28T09:44:15;4.00;;;2.92;;
75885;SDS011;64561;44.018;10.144;2023-02-28T09:46:50;5.85;;;3.70;;
75885;SDS011;64561;44.018;10.144;2023-02-28T09:49:25;5.07;;;3.03;;
75885;SDS011;64561;44.018;10.144;2023-02-28T09:52:01;5.63;;;3.80;;
75885;SDS011;64561;44.018;10.144;2023-02-28T09:54:32;8.48;;;5.35;;
75885;SDS011;64561;44.018;10.144;2023-02-28T09:57:06;9.75;;;5.32;;
75885;SDS011;64561;44.018;10.144;2023-02-28T09:59:52;8.55;;;5.20;;
75885;SDS011;64561;44.018;10.144;2023-02-28T10:03:17;7.65;;;4.82;;
75885;SDS011;64561;44.018;10.144;2023-02-28T10:06:05;7.15;;;3.70;;
75885;SDS011;64561;44.018;10.144;2023-02-28T10:08:37;8.98;;;4.60;;
75885;SDS011;64561;44.018;10.144;2023-02-28T10:11:12;7.95;;;3.97;;
75885;SDS011;64561;44.018;10.144;2023-02-28T10:16:40;5.82;;;3.40;;
75885;SDS011;64561;44.018;10.144;2023-02-28T10:21:49;5.07;;;3.00;;
75885;SDS011;64561;44.018;10.144;2023-02-28T10:24:35;3.83;;;2.55;;
75885;SDS011;64561;44.018;10.144;2023-02-28T10:27:06;3.95;;;2.60;;
75885;SDS011;64561;44.018;10.144;2023-02-28T10:29:49;5.78;;;2.90;;
75885;SDS011;64561;44.018;10.144;2023-02-28T10:32:19;5.22;;;3.45;;
75885;SDS011;64561;44.018;10.144;2023-02-28T10:34:54;4.45;;;2.40;;
75885;SDS011;64561;44.018;10.144;2023-02-28T10:37:26;4.72;;;2.70;;
75885;SDS011;64561;44.018;10.144;2023-02-28T10:39:54;5.65;;;2.65;;
75885;SDS011;64561;44.018;10.144;2023-02-28T10:42:23;16.33;;;10.18;;
75885;SDS011;64561;44.018;10.144;2023-02-28T10:47:55;4.72;;;2.67;;
75885;SDS011;64561;44.018;10.144;2023-02-28T10:55:58;5.47;;;3.05;;
75885;SDS011;64561;44.018;10.144;2023-02-28T10:59:22;6.18;;;2.80;;
75885;SDS011;64561;44.018;10.144;2023-02-28T11:01:45;6.03;;;3.63;;
75885;SDS011;64561;44.018;10.144;2023-02-28T11:06:59;9.20;;;5.60;;
75885;SDS011;64561;44.018;10.144;2023-02-28T11:09:33;17.58;;;11.63;;
75885;SDS011;64561;44.018;10.144;2023-02-28T11:12:02;5.47;;;4.35;;
75885;SDS011;64561;44.018;10.144;2023-02-28T11:14:48;8.85;;;4.10;;
75885;SDS011;64561;44.018;10.144;2023-02-28T11:17:22;10.00;;;7.35;;
75885;SDS011;64561;44.018;10.144;2023-02-28T11:19:55;6.13;;;3.30;;
75885;SDS011;64561;44.018;10.144;2023-02-28T11:22:26;6.32;;;4.30;;
75885;SDS011;64561;44.018;10.144;2023-02-28T11:24:57;4.43;;;2.67;;
75885;SDS011;64561;44.018;10.144;2023-02-28T11:29:58;7.32;;;5.90;;
75885;SDS011;64561;44.018;10.144;2023-02-28T11:32:27;5.82;;;2.95;;
75885;SDS011;64561;44.018;10.144;2023-02-28T11:35:17;4.72;;;2.78;;
75885;SDS011;64561;44.018;10.144;2023-02-28T11:37:56;4.80;;;2.92;;
75885;SDS011;64561;44.018;10.144;2023-02-28T11:40:39;4.25;;;2.60;;
75885;SDS011;64561;44.018;10.144;2023-02-28T11:49:15;5.22;;;3.08;;
75885;SDS011;64561;44.018;10.144;2023-02-28T11:52:06;4.63;;;2.45;;
75885;SDS011;64561;44.018;10.144;2023-02-28T11:57:16;5.55;;;2.80;;
75885;SDS011;64561;44.018;10.144;2023-02-28T11:59:52;4.03;;;2.67;;
75885;SDS011;64561;44.018;10.144;2023-02-28T12:25:50;4.40;;;2.67;;
75885;SDS011;64561;44.018;10.144;2023-02-28T12:28:21;4.35;;;2.92;;
75885;SDS011;64561;44.018;10.144;2023-02-28T12:31:05;5.22;;;3.33;;
75885;SDS011;64561;44.018;10.144;2023-02-28T12:36:09;8.00;;;4.93;;
75885;SDS011;64561;44.018;10.144;2023-02-28T12:44:14;6.03;;;4.25;;
75885;SDS011;64561;44.018;10.144;2023-02-28T12:46:57;4.88;;;2.55;;
75885;SDS011;64561;44.018;10.144;2023-02-28T12:49:29;5.15;;;3.33;;
75885;SDS011;64561;44.018;10.144;2023-02-28T12:52:00;4.35;;;3.13;;
75885;SDS011;64561;44.018;10.144;2023-02-28T13:00:33;4.75;;;2.88;;
75885;SDS011;64561;44.018;10.144;2023-02-28T13:11:40;6.25;;;2.92;;
75885;SDS011;64561;44.018;10.144;2023-02-28T13:14:25;4.85;;;2.90;;
75885;SDS011;64561;44.018;10.144;2023-02-28T13:19:28;4.15;;;2.80;;
75885;SDS011;64561;44.018;10.144;2023-02-28T13:21:57;4.20;;;3.10;;
75885;SDS011;64561;44.018;10.144;2023-02-28T13:27:32;6.05;;;3.47;;
75885;SDS011;64561;44.018;10.144;2023-02-28T13:38:46;5.53;;;2.85;;
75885;SDS011;64561;44.018;10.144;2023-02-28T13:46:36;4.90;;;2.50;;
75885;SDS011;64561;44.018;10.144;2023-02-28T13:51:50;3.83;;;2.33;;
75885;SDS011;64561;44.018;10.144;2023-02-28T14:02:59;6.38;;;3.40;;
75885;SDS011;64561;44.018;10.144;2023-02-28T14:05:47;3.85;;;2.28;;
75885;SDS011;64561;44.018;10.144;2023-02-28T14:08:57;5.18;;;2.80;;
75885;SDS011;64561;44.018;10.144;2023-02-28T14:13:56;3.80;;;2.63;;
75885;SDS011;64561;44.018;10.144;2023-02-28T14:16:24;5.18;;;2.58;;
75885;SDS011;64561;44.018;10.144;2023-02-28T14:19:00;4.35;;;2.70;;
75885;SDS011;64561;44.018;10.144;2023-02-28T14:21:36;5.25;;;3.78;;
75885;SDS011;64561;44.018;10.144;2023-02-28T14:24:22;4.45;;;2.60;;
75885;SDS011;64561;44.018;10.144;2023-02-28T14:32:46;4.20;;;2.75;;
75885;SDS011;64561;44.018;10.144;2023-02-28T14:35:26;3.85;;;2.75;;
75885;SDS011;64561;44.018;10.144;2023-02-28T14:38:07;5.95;;;3.13;;
75885;SDS011;64561;44.018;10.144;2023-02-28T14:41:00;9.30;;;5.22;;
75885;SDS011;64561;44.018;10.144;2023-02-28T14:43:31;12.88;;;9.25;;
75885;SDS011;64561;44.018;10.144;2023-02-28T14:45:59;14.25;;;9.02;;
75885;SDS011;64561;44.018;10.144;2023-02-28T14:48:28;18.33;;;12.60;;
75885;SDS011;64561;44.018;10.144;2023-02-28T14:50:59;5.47;;;3.85;;
75885;SDS011;64561;44.018;10.144;2023-02-28T14:53:28;13.30;;;7.32;;
75885;SDS011;64561;44.018;10.144;2023-02-28T14:55:56;15.25;;;9.68;;
75885;SDS011;64561;44.018;10.144;2023-02-28T14:58:30;6.80;;;4.95;;
75885;SDS011;64561;44.018;10.144;2023-02-28T15:01:00;5.50;;;3.80;;
75885;SDS011;64561;44.018;10.144;2023-02-28T15:06:02;5.70;;;3.70;;
75885;SDS011;64561;44.018;10.144;2023-02-28T15:08:31;5.75;;;4.30;;
75885;SDS011;64561;44.018;10.144;2023-02-28T15:11:12;5.80;;;3.83;;
75885;SDS011;64561;44.018;10.144;2023-02-28T15:13:46;5.97;;;3.78;;
75885;SDS011;64561;44.018;10.144;2023-02-28T15:16:33;4.88;;;4.05;;
75885;SDS011;64561;44.018;10.144;2023-02-28T15:19:06;4.00;;;2.85;;
75885;SDS011;64561;44.018;10.144;2023-02-28T15:21:42;12.30;;;10.10;;
75885;SDS011;64561;44.018;10.144;2023-02-28T15:27:14;5.30;;;3.42;;
75885;SDS011;64561;44.018;10.144;2023-02-28T15:29:48;7.45;;;4.88;;
75885;SDS011;64561;44.018;10.144;2023-02-28T15:34:53;4.30;;;2.70;;
75885;SDS011;64561;44.018;10.144;2023-02-28T15:40:18;4.72;;;2.90;;
75885;SDS011;64561;44.018;10.144;2023-02-28T15:45:34;3.80;;;2.15;;
75885;SDS011;64561;44.018;10.144;2023-02-28T15:51:01;5.18;;;3.65;;
75885;SDS011;64561;44.018;10.144;2023-02-28T15:56:58;9.07;;;5.03;;
75885;SDS011;64561;44.018;10.144;2023-02-28T15:59:35;8.88;;;6.22;;
75885;SDS011;64561;44.018;10.144;2023-02-28T16:04:36;6.40;;;3.50;;
75885;SDS011;64561;44.018;10.144;2023-02-28T16:07:05;7.35;;;4.15;;
75885;SDS011;64561;44.018;10.144;2023-02-28T16:09:32;5.80;;;3.70;;
75885;SDS011;64561;44.018;10.144;2023-02-28T16:12:03;6.22;;;4.45;;
75885;SDS011;64561;44.018;10.144;2023-02-28T16:14:31;5.15;;;3.92;;
75885;SDS011;64561;44.018;10.144;2023-02-28T16:17:03;4.80;;;2.55;;
75885;SDS011;64561;44.018;10.144;2023-02-28T16:19:31;6.43;;;4.03;;
75885;SDS011;64561;44.018;10.144;2023-02-28T16:22:00;9.18;;;5.72;;
75885;SDS011;64561;44.018;10.144;2023-02-28T16:24:27;9.82;;;5.15;;
75885;SDS011;64561;44.018;10.144;2023-02-28T16:26:54;6.63;;;4.68;;
75885;SDS011;64561;44.018;10.144;2023-02-28T16:29:24;6.82;;;4.95;;
75885;SDS011;64561;44.018;10.144;2023-02-28T16:31:55;5.82;;;4.13;;
75885;SDS011;64561;44.018;10.144;2023-02-28T16:34:22;4.88;;;3.05;;
75885;SDS011;64561;44.018;10.144;2023-02-28T16:36:50;5.95;;;3.45;;
75885;SDS011;64561;44.018;10.144;2023-02-28T16:39:17;6.22;;;3.45;;
75885;SDS011;64561;44.018;10.144;2023-02-28T16:41:47;4.82;;;3.10;;
75885;SDS011;64561;44.018;10.144;2023-02-28T16:46:55;8.02;;;5.38;;
75885;SDS011;64561;44.018;10.144;2023-02-28T16:49:22;4.50;;;2.67;;
75885;SDS011;64561;44.018;10.144;2023-02-28T16:51:49;3.92;;;2.70;;
75885;SDS011;64561;44.018;10.144;2023-02-28T16:54:16;4.88;;;2.90;;
75885;SDS011;64561;44.018;10.144;2023-02-28T16:56:44;4.93;;;3.08;;
75885;SDS011;64561;44.018;10.144;2023-02-28T16:59:13;4.97;;;3.20;;
75885;SDS011;64561;44.018;10.144;2023-02-28T17:01:44;5.75;;;2.88;;
75885;SDS011;64561;44.018;10.144;2023-02-28T17:04:11;5.50;;;2.97;;
75885;SDS011;64561;44.018;10.144;2023-02-28T17:06:38;5.22;;;3.30;;
75885;SDS011;64561;44.018;10.144;2023-02-28T17:09:08;6.30;;;3.60;;
75885;SDS011;64561;44.018;10.144;2023-02-28T17:11:42;6.03;;;3.58;;
75885;SDS011;64561;44.018;10.144;2023-02-28T17:14:10;5.63;;;3.67;;
75885;SDS011;64561;44.018;10.144;2023-02-28T17:16:37;4.65;;;3.40;;
75885;SDS011;64561;44.018;10.144;2023-02-28T17:21:40;13.13;;;8.93;;
75885;SDS011;64561;44.018;10.144;2023-02-28T17:24:10;15.93;;;11.93;;
75885;SDS011;64561;44.018;10.144;2023-02-28T17:26:55;17.17;;;11.63;;
75885;SDS011;64561;44.018;10.144;2023-02-28T17:29:22;19.25;;;13.55;;
75885;SDS011;64561;44.018;10.144;2023-02-28T17:31:51;21.58;;;13.70;;
75885;SDS011;64561;44.018;10.144;2023-02-28T17:34:18;26.77;;;16.52;;
75885;SDS011;64561;44.018;10.144;2023-02-28T17:36:46;21.60;;;14.05;;
75885;SDS011;64561;44.018;10.144;2023-02-28T17:39:15;17.42;;;12.55;;
75885;SDS011;64561;44.018;10.144;2023-02-28T17:41:53;16.73;;;9.38;;
75885;SDS011;64561;44.018;10.144;2023-02-28T17:44:22;16.90;;;9.85;;
75885;SDS011;64561;44.018;10.144;2023-02-28T17:46:50;15.65;;;9.77;;
75885;SDS011;64561;44.018;10.144;2023-02-28T17:49:18;17.58;;;10.45;;
75885;SDS011;64561;44.018;10.144;2023-02-28T17:51:46;13.95;;;9.57;;
75885;SDS011;64561;44.018;10.144;2023-02-28T17:54:14;13.40;;;9.73;;
75885;SDS011;64561;44.018;10.144;2023-02-28T17:56:44;14.77;;;9.65;;
75885;SDS011;64561;44.018;10.144;2023-02-28T17:59:11;31.58;;;18.13;;
75885;SDS011;64561;44.018;10.144;2023-02-28T18:01:39;144.80;;;76.50;;
75885;SDS011;64561;44.018;10.144;2023-02-28T18:04:06;110.78;;;58.03;;
75885;SDS011;64561;44.018;10.144;2023-02-28T18:06:37;64.65;;;36.92;;
75885;SDS011;64561;44.018;10.144;2023-02-28T18:09:14;26.67;;;14.35;;